Terminal Aerodrome Forecast
Issued by NWS Billings, MT

Home | Current Version | Previous Version | Text Only | Print | Product List | Glossary On
Versions: 1 2 3 4 5 6 7 8 9 10 11 12 13 14 15 16 17
000
FTUS45 KBYZ 202224 AAA
TAFBIL
TAF AMD
KBIL 202224Z 2022/2118 VRB05KT P6SM FEW200
     FM202300 27014KT P6SM SCT120 SCT200
     FM210400 VRB05KT P6SM FEW080 SCT120 BKN200=

USA.gov is the U.S. government's official web portal to all federal, state and local government web resources and services.